Homestown, Missouri
Current Conditions -  °F | °C
As of 8:53 PM on Wednesday 22 Oct 2014 (Local Time) from KHKA Reporting Station
Clear Clear  
Wind Chill: 11°   Ceiling: Unl
Heat Index: 11°   Visibility: 10mi
Dew Point:   Wind: 3mph
Humidity: 77%   Direction: 70°ENE
Pressure: 30.2"   Gusts: NA
Location:  36.3524°N, 89.8327°W
Report Text: KHKA 230153Z AUTO 07003KT 10SM CLR 11/07 A3020 RMK AO2 SLP227 T01060067
Loading
Personal Weather Stations






























Interactive Weather Map
Tropical Storm Tracking
New forecast layout! Learn more

10-Day Weather Forecast

Advertisements
Track Severe Weather on mobile